La Salle, Illinois
Current Conditions -  °F | °C
As of 11:15 AM on Friday 19 Dec 2014 (Local Time) from KVYS Reporting Station
Broken Clouds Broken Clouds  
Wind Chill: -3°   Ceiling: 1900
Heat Index: -1°   Visibility: 10mi
Dew Point: -5°   Wind: 5mph
Humidity: 76%   Direction: 30°NNE
Pressure: 30.32"   Gusts: NA
Location:  41.33°N, 89.09°W
Report Text: KVYS 191715Z AUTO 03004KT 10SM SCT015 BKN019 M01/M04 A3032 RMK AO2 T10071045
Loading
Personal Weather Stations






























Interactive Weather Map New forecast layout! Learn more

10-Day Weather Forecast

Advertisements
Track Severe Weather on mobile